Time;durP1;ratioP1;P1;durP2;ratioP2;P2;SDS_P1;SDS_P2;PMS_P1;PMS_P2;Temp;Humidity;BMP_temperature;BMP_pressure;BME280_temperature;BME280_humidity;BME280_pressure;Samples;Min_cycle;Max_cycle;Signal;HPM_P1;HPM_P2
2023/11/16 00:00:06;;;;;;;7.68;2.10;;;9.70;99.90;;;;;;4171970;28;20053;-71
2023/11/16 00:02:07;;;;;;;7.25;2.15;;;9.80;99.90;;;;;;4169234;28;20064;-69
2023/11/16 00:04:09;;;;;;;13.63;2.80;;;9.80;99.90;;;;;;4174869;28;20029;-70
2023/11/16 00:06:10;;;;;;;11.45;2.70;;;9.80;99.90;;;;;;4171294;28;20045;-69
2023/11/16 00:08:11;;;;;;;9.77;2.58;;;9.80;99.90;;;;;;4174655;28;20424;-70
2023/11/16 00:10:14;;;;;;;9.18;2.55;;;9.80;99.90;;;;;;4170970;28;20090;-70
2023/11/16 00:12:14;;;;;;;9.50;2.08;;;9.80;99.90;;;;;;4167566;28;20059;-70
2023/11/16 00:14:15;;;;;;;10.43;2.45;;;9.80;99.90;;;;;;4173177;28;20116;-70
2023/11/16 00:16:16;;;;;;;12.80;2.67;;;9.80;99.90;;;;;;4165581;28;20469;-69
2023/11/16 00:18:18;;;;;;;7.85;2.65;;;9.80;99.90;;;;;;4174755;28;20041;-70
2023/11/16 00:20:19;;;;;;;8.27;2.03;;;9.80;99.90;;;;;;4152881;28;20038;-70
2023/11/16 00:22:19;;;;;;;15.13;2.72;;;9.80;99.90;;;;;;4173124;28;20041;-69
2023/11/16 00:24:20;;;;;;;7.50;2.22;;;9.80;99.90;;;;;;4174352;28;20029;-69
2023/11/16 00:26:21;;;;;;;10.88;2.63;;;9.80;99.90;;;;;;4173944;28;20048;-69
2023/11/16 00:28:26;;;;;;;9.20;2.57;;;9.80;99.90;;;;;;4174370;28;20075;-69
2023/11/16 00:30:27;;;;;;;10.40;2.72;;;9.80;99.90;;;;;;4169105;28;20037;-70
2023/11/16 00:32:27;;;;;;;8.80;2.40;;;9.90;99.90;;;;;;4177116;28;20044;-69
2023/11/16 00:34:28;;;;;;;7.93;2.67;;;9.80;99.90;;;;;;4170764;28;20029;-69
2023/11/16 00:36:28;;;;;;;7.68;2.35;;;9.90;99.90;;;;;;4176679;28;20116;-70
2023/11/16 00:38:29;;;;;;;13.65;3.08;;;9.80;99.90;;;;;;4177601;28;20049;-69
2023/11/16 00:40:32;;;;;;;7.57;2.33;;;9.80;99.90;;;;;;4170862;28;20048;-69
2023/11/16 00:42:35;;;;;;;13.88;2.92;;;9.90;99.90;;;;;;4169857;28;20037;-70
2023/11/16 00:44:37;;;;;;;6.80;2.50;;;9.90;99.90;;;;;;4176186;28;20445;-70
2023/11/16 00:46:43;;;;;;;7.10;2.58;;;9.80;99.90;;;;;;4176371;28;20037;-69
2023/11/16 00:48:43;;;;;;;9.35;2.30;;;9.90;99.90;;;;;;4173588;28;20041;-70
2023/11/16 00:50:44;;;;;;;12.13;2.33;;;9.80;99.90;;;;;;4169378;28;20063;-70
2023/11/16 00:52:47;;;;;;;7.75;2.22;;;9.80;99.90;;;;;;4170219;28;20033;-69
2023/11/16 00:54:50;;;;;;;6.85;1.95;;;9.80;99.90;;;;;;4177504;28;20052;-69
2023/11/16 00:56:51;;;;;;;10.57;2.60;;;9.90;99.90;;;;;;4169294;28;20034;-69
2023/11/16 00:58:51;;;;;;;7.80;2.47;;;9.90;99.90;;;;;;4173450;28;20113;-72
2023/11/16 01:00:52;;;;;;;11.50;3.33;;;9.90;99.90;;;;;;4168701;28;20040;-72
2023/11/16 01:02:53;;;;;;;15.15;2.88;;;9.90;99.90;;;;;;4175132;28;20346;-72
2023/11/16 01:04:54;;;;;;;7.82;2.25;;;9.90;99.90;;;;;;4178161;28;20040;-72
2023/11/16 01:06:55;;;;;;;8.70;2.30;;;9.90;99.90;;;;;;4176426;28;20025;-72
2023/11/16 01:08:56;;;;;;;9.43;2.33;;;9.90;99.90;;;;;;4176241;28;20410;-72
2023/11/16 01:10:57;;;;;;;7.53;2.40;;;9.90;99.90;;;;;;4176361;28;20048;-72
2023/11/16 01:12:58;;;;;;;10.43;2.63;;;9.90;99.90;;;;;;4172602;28;20128;-71
2023/11/16 01:14:59;;;;;;;9.57;3.22;;;9.90;99.90;;;;;;4175674;28;20041;-72
2023/11/16 01:17:04;;;;;;;13.93;2.92;;;9.90;99.90;;;;;;4167162;28;20120;-71
2023/11/16 01:19:08;;;;;;;10.02;2.88;;;9.90;99.90;;;;;;4174132;28;20053;-72
2023/11/16 01:21:09;;;;;;;12.50;2.30;;;9.90;99.90;;;;;;4173433;28;20037;-72
2023/11/16 01:23:15;;;;;;;13.77;2.63;;;9.90;99.90;;;;;;4169677;28;20366;-72
2023/11/16 01:25:16;;;;;;;10.13;2.70;;;9.90;99.90;;;;;;4169360;28;20042;-73
2023/11/16 01:27:25;;;;;;;12.52;3.30;;;9.90;99.90;;;;;;4175004;28;20558;-72
2023/11/16 01:29:27;;;;;;;11.60;2.50;;;9.90;99.90;;;;;;4174419;28;20059;-72
2023/11/16 01:31:27;;;;;;;11.90;3.03;;;9.80;99.90;;;;;;4174560;28;20040;-71
2023/11/16 01:33:28;;;;;;;8.52;2.72;;;9.80;99.90;;;;;;4168626;28;20074;-71
2023/11/16 01:35:29;;;;;;;10.73;2.28;;;9.80;99.90;;;;;;4175843;28;20040;-72
2023/11/16 01:37:30;;;;;;;11.45;2.78;;;9.90;99.90;;;;;;4176649;28;20444;-72
2023/11/16 01:39:31;;;;;;;10.27;2.50;;;9.80;99.90;;;;;;4175419;28;20512;-72
2023/11/16 01:41:32;;;;;;;15.50;3.88;;;9.90;99.90;;;;;;4176152;28;20120;-71
2023/11/16 01:43:33;;;;;;;12.02;3.95;;;9.80;99.90;;;;;;4175619;28;20032;-71
2023/11/16 01:45:34;;;;;;;12.43;5.13;;;9.80;99.90;;;;;;4175320;28;20029;-71
2023/11/16 01:47:35;;;;;;;12.98;4.72;;;9.80;99.90;;;;;;4176622;28;20052;-72
2023/11/16 01:49:37;;;;;;;13.98;4.78;;;9.80;99.90;;;;;;4173580;28;20037;-72
2023/11/16 01:51:43;;;;;;;11.68;5.03;;;9.80;99.90;;;;;;4176422;28;20043;-72
2023/11/16 01:53:46;;;;;;;14.60;6.22;;;9.70;99.90;;;;;;4176565;28;20117;-72
2023/11/16 01:55:48;;;;;;;14.50;4.85;;;9.80;99.90;;;;;;4175699;28;20052;-72
2023/11/16 01:57:49;;;;;;;21.88;6.43;;;9.80;99.90;;;;;;4173435;28;20068;-72
2023/11/16 01:59:50;;;;;;;11.10;3.80;;;9.70;99.90;;;;;;4190063;28;20041;-72
2023/11/16 02:01:51;;;;;;;11.02;3.10;;;9.70;99.90;;;;;;4175098;28;20370;-72
2023/11/16 02:03:53;;;;;;;5.93;2.30;;;9.60;99.90;;;;;;4176258;28;20079;-72
2023/11/16 02:05:55;;;;;;;6.07;2.15;;;9.60;99.90;;;;;;4166689;28;20025;-72
2023/11/16 02:07:56;;;;;;;;;;;9.70;99.90;;;;;;4175742;28;20499;-76
2023/11/16 02:09:57;;;;;;;10.65;2.88;;;9.70;99.90;;;;;;4174324;28;19916;-66
2023/11/16 02:11:58;;;;;;;5.63;2.25;;;9.60;99.90;;;;;;4174897;28;20500;-67
2023/11/16 02:13:59;;;;;;;8.80;2.78;;;9.60;99.90;;;;;;4180898;28;20138;-67
2023/11/16 02:15:59;;;;;;;12.40;2.35;;;9.60;99.90;;;;;;4176568;28;20033;-66
2023/11/16 02:18:00;;;;;;;10.98;2.20;;;9.50;99.90;;;;;;4176718;28;20887;-66
2023/11/16 02:20:01;;;;;;;8.43;2.58;;;9.50;99.90;;;;;;4169100;28;20044;-67
2023/11/16 02:22:02;;;;;;;9.82;2.47;;;9.50;99.90;;;;;;4175298;28;20037;-67
2023/11/16 02:24:03;;;;;;;8.68;2.42;;;9.50;99.90;;;;;;4174579;28;20401;-67
2023/11/16 02:26:04;;;;;;;12.32;2.58;;;9.40;99.90;;;;;;4174872;28;20401;-67
2023/11/16 02:28:04;;;;;;;8.10;2.58;;;9.50;99.90;;;;;;4169728;28;20044;-67
2023/11/16 02:30:06;;;;;;;10.52;2.47;;;9.40;99.90;;;;;;4174334;28;20068;-67
2023/11/16 02:32:06;;;;;;;7.88;2.20;;;9.40;99.90;;;;;;4168667;28;20033;-66
2023/11/16 02:34:07;;;;;;;9.73;2.35;;;9.40;99.90;;;;;;4176506;28;20047;-66
2023/11/16 02:36:10;;;;;;;7.30;2.05;;;9.40;99.90;;;;;;4174994;28;20075;-67
2023/11/16 02:38:12;;;;;;;7.85;2.08;;;9.40;99.90;;;;;;4175929;28;20495;-66
2023/11/16 02:40:16;;;;;;;10.45;2.63;;;9.40;99.90;;;;;;4171156;28;20469;-67
2023/11/16 02:42:16;;;;;;;10.02;3.00;;;9.40;99.90;;;;;;4170618;28;20029;-67
2023/11/16 02:44:18;;;;;;;5.45;2.13;;;9.40;99.90;;;;;;4176053;28;20039;-66
2023/11/16 02:46:19;;;;;;;8.82;2.70;;;9.30;99.90;;;;;;4165635;28;20351;-66
2023/11/16 02:48:19;;;;;;;9.35;2.47;;;9.30;99.90;;;;;;4161113;28;20064;-66
2023/11/16 02:50:22;;;;;;;9.40;2.50;;;9.30;99.90;;;;;;4170230;28;20047;-66
2023/11/16 02:52:22;;;;;;;9.50;2.35;;;9.30;99.90;;;;;;4175331;28;20028;-66
2023/11/16 02:54:23;;;;;;;7.15;2.00;;;9.30;99.90;;;;;;4173211;28;20114;-66
2023/11/16 02:56:23;;;;;;;5.90;2.10;;;9.30;99.90;;;;;;4167756;28;20037;-66
2023/11/16 02:58:24;;;;;;;9.00;2.42;;;9.30;99.90;;;;;;4167296;28;20037;-66
2023/11/16 03:00:25;;;;;;;10.32;2.13;;;9.30;99.90;;;;;;4167847;28;20072;-66
2023/11/16 03:02:25;;;;;;;10.82;2.67;;;9.30;99.90;;;;;;4161614;28;20029;-66
2023/11/16 03:04:27;;;;;;;8.85;2.55;;;9.30;99.90;;;;;;4166945;28;20052;-67
2023/11/16 03:06:27;;;;;;;9.85;2.35;;;9.30;99.90;;;;;;4173557;28;20029;-67
2023/11/16 03:08:28;;;;;;;6.97;2.20;;;9.30;99.90;;;;;;4175335;28;20033;-67
2023/11/16 03:10:28;;;;;;;8.43;2.00;;;9.30;99.90;;;;;;4166226;28;20037;-67
2023/11/16 03:12:29;;;;;;;8.18;2.22;;;9.30;99.90;;;;;;4173020;28;20037;-67
2023/11/16 03:14:30;;;;;;;11.43;2.70;;;9.30;99.90;;;;;;4174881;28;20040;-67
2023/11/16 03:16:31;;;;;;;7.68;2.30;;;9.30;99.90;;;;;;4170493;28;20489;-67
2023/11/16 03:18:31;;;;;;;10.15;2.60;;;9.30;99.90;;;;;;4173271;28;20388;-73
2023/11/16 03:20:32;;;;;;;8.20;2.35;;;9.30;99.90;;;;;;4170458;28;20073;-73
2023/11/16 03:22:34;;;;;;;6.97;2.05;;;9.30;99.90;;;;;;4177490;28;20045;-73
2023/11/16 03:24:34;;;;;;;8.65;2.25;;;9.30;99.90;;;;;;4178673;28;20033;-72
2023/11/16 03:26:35;;;;;;;13.98;2.67;;;9.20;99.90;;;;;;4173644;28;20060;-72
2023/11/16 03:28:36;;;;;;;6.72;2.10;;;9.20;99.90;;;;;;4189811;28;20094;-72
2023/11/16 03:30:38;;;;;;;6.85;2.25;;;9.20;99.90;;;;;;4171240;28;20117;-73
2023/11/16 03:32:38;;;;;;;9.65;2.33;;;9.20;99.90;;;;;;4171232;28;20543;-73
2023/11/16 03:34:39;;;;;;;11.10;2.58;;;9.30;99.90;;;;;;4172487;28;20037;-72
2023/11/16 03:36:40;;;;;;;11.90;3.00;;;9.20;99.90;;;;;;4171102;28;20401;-73
2023/11/16 03:38:40;;;;;;;9.35;2.78;;;9.20;99.90;;;;;;4172703;28;20091;-73
2023/11/16 03:40:42;;;;;;;5.47;2.13;;;9.20;99.90;;;;;;4171642;28;20151;-72
2023/11/16 03:42:43;;;;;;;10.48;2.20;;;9.20;99.90;;;;;;4176631;28;20037;-73
2023/11/16 03:44:43;;;;;;;9.10;2.40;;;9.20;99.90;;;;;;4180387;28;20125;-72
2023/11/16 03:46:44;;;;;;;8.65;2.65;;;9.20;99.90;;;;;;4181919;28;20091;-72
2023/11/16 03:48:45;;;;;;;11.27;2.22;;;9.30;99.90;;;;;;4172403;28;20493;-73
2023/11/16 03:50:45;;;;;;;8.52;2.80;;;9.20;99.90;;;;;;4167102;28;20178;-72
2023/11/16 03:52:46;;;;;;;10.13;2.83;;;9.30;99.90;;;;;;4173923;28;20063;-72
2023/11/16 03:54:46;;;;;;;7.90;2.55;;;9.30;99.90;;;;;;4173654;28;20076;-72
2023/11/16 03:56:49;;;;;;;9.80;2.22;;;9.30;99.90;;;;;;4172119;28;20037;-73
2023/11/16 03:58:50;;;;;;;;;;;9.30;99.90;;;;;;4171812;28;20048;-73
2023/11/16 04:00:50;;;;;;;8.38;2.30;;;9.30;99.90;;;;;;4174137;28;20642;-73
2023/11/16 04:02:52;;;;;;;8.02;2.55;;;9.30;99.90;;;;;;4177419;28;20478;-73
2023/11/16 04:04:52;;;;;;;8.13;2.15;;;9.30;99.90;;;;;;4174042;28;20121;-73
2023/11/16 04:06:53;;;;;;;8.98;2.35;;;9.30;99.90;;;;;;4174849;28;20076;-72
2023/11/16 04:08:53;;;;;;;17.05;2.78;;;9.40;99.90;;;;;;4176702;28;20108;-73
2023/11/16 04:10:54;;;;;;;7.78;2.33;;;9.40;99.90;;;;;;4174652;28;20028;-73
2023/11/16 04:12:55;;;;;;;9.70;2.22;;;9.40;99.90;;;;;;4175248;28;20045;-73
2023/11/16 04:14:55;;;;;;;8.55;2.30;;;9.30;99.90;;;;;;4176063;28;20044;-72
2023/11/16 04:16:57;;;;;;;6.43;1.98;;;9.40;99.90;;;;;;4173669;28;20418;-73
2023/11/16 04:18:58;;;;;;;8.40;2.75;;;9.40;99.90;;;;;;4174345;28;20064;-72
2023/11/16 04:20:59;;;;;;;6.03;1.88;;;9.40;99.90;;;;;;4164787;28;20496;-72
2023/11/16 04:22:59;;;;;;;7.68;2.65;;;9.40;99.90;;;;;;4176557;28;20390;-72
2023/11/16 04:25:04;;;;;;;6.97;2.65;;;9.40;99.90;;;;;;4177913;28;20036;-72
2023/11/16 04:27:06;;;;;;;7.00;2.10;;;9.40;99.90;;;;;;4174994;28;20560;-71
2023/11/16 04:29:07;;;;;;;9.23;2.72;;;9.50;99.90;;;;;;4171454;28;20117;-72
2023/11/16 04:31:09;;;;;;;6.22;1.92;;;9.50;99.90;;;;;;4165539;28;20069;-72
2023/11/16 04:33:10;;;;;;;5.50;2.20;;;9.50;99.90;;;;;;4170169;28;20466;-72
2023/11/16 04:35:15;;;;;;;6.85;2.17;;;9.60;99.90;;;;;;4169509;28;20042;-73
2023/11/16 04:37:16;;;;;;;8.57;2.45;;;9.50;99.90;;;;;;4177092;28;20044;-72
2023/11/16 04:39:17;;;;;;;4.65;2.17;;;9.60;99.90;;;;;;4172606;28;20170;-72
2023/11/16 04:41:18;;;;;;;9.52;2.35;;;9.50;99.90;;;;;;4171181;28;20084;-72
2023/11/16 04:43:20;;;;;;;5.32;2.50;;;9.60;99.90;;;;;;4176689;28;20512;-73
2023/11/16 04:45:20;;;;;;;9.18;2.40;;;9.60;99.90;;;;;;4176488;28;20090;-73
2023/11/16 04:47:21;;;;;;;7.90;2.63;;;9.60;99.90;;;;;;4176409;28;20052;-73
2023/11/16 04:49:21;;;;;;;7.70;2.33;;;9.50;99.90;;;;;;4175673;28;20033;-72
2023/11/16 04:51:24;;;;;;;6.53;2.30;;;9.60;99.90;;;;;;4172251;28;20045;-73
2023/11/16 04:53:25;;;;;;;6.90;2.17;;;9.60;99.90;;;;;;4171109;28;20037;-72
2023/11/16 04:55:26;;;;;;;6.88;2.58;;;9.50;99.90;;;;;;4175929;28;20033;-73
2023/11/16 04:57:28;;;;;;;10.50;2.70;;;9.60;99.90;;;;;;4177479;28;20086;-73
2023/11/16 04:59:29;;;;;;;7.50;2.60;;;9.50;99.90;;;;;;4172989;28;20050;-72
2023/11/16 05:01:30;;;;;;;7.68;2.58;;;9.50;99.90;;;;;;4173643;28;20036;-72
2023/11/16 05:03:30;;;;;;;9.98;2.65;;;9.50;99.90;;;;;;4172849;28;20044;-72
2023/11/16 05:05:33;;;;;;;14.82;2.85;;;9.50;99.90;;;;;;4176665;28;20086;-72
2023/11/16 05:07:34;;;;;;;9.10;3.00;;;9.50;99.90;;;;;;4171704;28;20033;-72
2023/11/16 05:09:34;;;;;;;10.50;3.13;;;9.60;99.90;;;;;;4174503;28;20213;-72
2023/11/16 05:11:35;;;;;;;8.68;2.40;;;9.60;99.90;;;;;;4175046;28;20476;-74
2023/11/16 05:13:36;;;;;;;10.95;3.17;;;9.50;99.90;;;;;;4174006;28;20165;-72
2023/11/16 05:15:36;;;;;;;8.95;2.60;;;9.50;99.90;;;;;;4172091;28;20025;-72
2023/11/16 05:17:37;;;;;;;7.57;2.67;;;9.50;99.90;;;;;;4175305;28;20041;-72
2023/11/16 05:19:38;;;;;;;9.30;2.75;;;9.50;99.90;;;;;;4174098;28;20052;-72
2023/11/16 05:21:39;;;;;;;4.22;1.73;;;9.60;99.90;;;;;;4173969;28;20499;-73
2023/11/16 05:23:41;;;;;;;10.37;2.87;;;9.60;99.90;;;;;;4173441;28;20033;-72
2023/11/16 05:25:43;;;;;;;9.50;2.35;;;9.60;99.90;;;;;;4173237;28;20384;-72
2023/11/16 05:27:44;;;;;;;7.55;2.45;;;9.60;99.90;;;;;;4176646;28;20040;-73
2023/11/16 05:29:45;;;;;;;6.63;2.78;;;9.60;99.90;;;;;;4169136;28;20113;-72
2023/11/16 05:31:48;;;;;;;8.05;2.50;;;9.60;99.90;;;;;;4173494;28;20075;-72
2023/11/16 05:33:48;;;;;;;7.90;2.60;;;9.60;99.90;;;;;;4174358;28;20058;-73
2023/11/16 05:35:51;;;;;;;8.68;2.88;;;9.60;99.90;;;;;;4173737;28;20390;-72
2023/11/16 05:37:51;;;;;;;8.25;2.35;;;9.50;99.90;;;;;;4176121;28;20465;-63
2023/11/16 05:39:52;;;;;;;7.22;2.70;;;9.60;99.90;;;;;;4187827;28;20114;-66
2023/11/16 05:41:53;;;;;;;9.95;2.63;;;9.50;99.90;;;;;;4174633;28;20350;-66
2023/11/16 05:43:53;;;;;;;11.25;2.97;;;9.50;99.90;;;;;;4176796;28;20555;-67
2023/11/16 05:45:54;;;;;;;11.63;2.65;;;9.50;99.90;;;;;;4170533;28;20029;-66
2023/11/16 05:47:56;;;;;;;6.97;2.67;;;9.50;99.90;;;;;;4176116;28;20048;-66
2023/11/16 05:49:57;;;;;;;8.05;2.35;;;9.50;99.90;;;;;;4169552;28;20065;-67
2023/11/16 05:51:58;;;;;;;6.22;2.63;;;9.50;99.90;;;;;;4175587;28;20037;-67
2023/11/16 05:53:58;;;;;;;9.80;2.60;;;9.50;99.90;;;;;;4175136;28;20178;-67
2023/11/16 05:55:59;;;;;;;9.63;2.60;;;9.50;99.90;;;;;;4176612;28;20198;-67
2023/11/16 05:58:00;;;;;;;8.18;2.42;;;9.50;99.90;;;;;;4176812;28;20033;-67
2023/11/16 06:00:00;;;;;;;7.95;2.53;;;9.50;99.90;;;;;;4171849;28;20132;-67
2023/11/16 06:02:01;;;;;;;9.35;2.90;;;9.50;99.90;;;;;;4170349;28;20036;-66
2023/11/16 06:04:02;;;;;;;9.00;2.40;;;9.50;99.90;;;;;;4180155;28;20056;-66
2023/11/16 06:06:03;;;;;;;8.63;2.47;;;9.50;99.90;;;;;;4168119;28;20087;-66
2023/11/16 06:08:04;;;;;;;5.18;2.17;;;9.50;99.90;;;;;;4172695;28;20045;-66
2023/11/16 06:10:06;;;;;;;5.30;2.58;;;9.50;99.90;;;;;;4172334;28;20045;-67
2023/11/16 06:12:07;;;;;;;7.97;2.30;;;9.50;99.90;;;;;;4181025;28;20085;-67
2023/11/16 06:14:08;;;;;;;8.85;2.30;;;9.50;99.90;;;;;;4164927;28;20099;-67
2023/11/16 06:16:12;;;;;;;11.13;2.85;;;9.50;99.90;;;;;;4160907;28;20034;-67
2023/11/16 06:18:12;;;;;;;8.93;2.47;;;9.50;99.90;;;;;;4173967;28;20033;-67
2023/11/16 06:20:13;;;;;;;8.23;2.50;;;9.60;99.90;;;;;;4171661;28;20407;-66
2023/11/16 06:22:14;;;;;;;7.40;2.70;;;9.60;99.90;;;;;;4170075;28;20042;-66
2023/11/16 06:24:14;;;;;;;5.65;2.25;;;9.50;99.90;;;;;;4174578;28;20084;-66
2023/11/16 06:26:15;;;;;;;6.35;2.35;;;9.60;99.90;;;;;;4168874;28;20033;-68
2023/11/16 06:28:16;;;;;;;7.82;2.47;;;9.60;99.90;;;;;;4173172;28;20071;-69
2023/11/16 06:30:17;;;;;;;9.55;2.40;;;9.60;99.90;;;;;;4165810;28;20409;-69
2023/11/16 06:32:17;;;;;;;7.95;2.53;;;9.60;99.90;;;;;;4166270;28;20179;-68
2023/11/16 06:34:18;;;;;;;9.50;2.78;;;9.60;99.90;;;;;;4164616;28;20040;-68
2023/11/16 06:36:22;;;;;;;7.30;2.42;;;9.50;99.90;;;;;;4176420;28;20041;-68
2023/11/16 06:38:22;;;;;;;10.80;3.20;;;9.60;99.90;;;;;;4173842;28;20041;-68
2023/11/16 06:40:23;;;;;;;12.60;2.70;;;9.60;99.90;;;;;;4171087;28;20098;-68
2023/11/16 06:42:24;;;;;;;5.45;2.22;;;9.50;99.90;;;;;;4192022;28;20039;-68
2023/11/16 06:44:25;;;;;;;7.13;2.45;;;9.50;99.90;;;;;;4176599;28;20029;-69
2023/11/16 06:46:28;;;;;;;9.77;2.78;;;9.50;99.90;;;;;;4171191;28;20021;-68
2023/11/16 06:48:30;;;;;;;8.18;2.95;;;9.50;99.90;;;;;;4173342;28;20088;-77
2023/11/16 06:50:33;;;;;;;14.38;2.92;;;9.50;99.90;;;;;;4169132;28;20029;-76
2023/11/16 06:52:36;;;;;;;8.02;2.80;;;9.50;99.90;;;;;;4174480;28;20152;-76
2023/11/16 06:54:39;;;;;;;6.63;2.33;;;9.50;99.90;;;;;;4171896;28;20488;-77
2023/11/16 06:56:40;;;;;;;9.73;3.25;;;9.50;99.90;;;;;;4172089;28;20033;-76
2023/11/16 06:58:41;;;;;;;6.60;2.22;;;9.40;99.90;;;;;;4174186;28;20544;-76
2023/11/16 07:00:43;;;;;;;7.82;2.60;;;9.50;99.90;;;;;;4187666;28;20075;-77
2023/11/16 07:02:45;;;;;;;;;;;9.40;99.90;;;;;;4174307;28;20032;-77
2023/11/16 07:04:47;;;;;;;8.18;2.85;;;9.40;99.90;;;;;;4168270;28;19909;-78
2023/11/16 07:06:48;;;;;;;5.45;2.47;;;9.50;99.90;;;;;;4166746;28;20481;-78
2023/11/16 07:08:50;;;;;;;8.18;2.40;;;9.40;99.90;;;;;;4166666;28;20029;-78
2023/11/16 07:10:51;;;;;;;5.70;2.50;;;9.40;99.90;;;;;;4172263;28;20036;-78
2023/11/16 07:12:51;;;;;;;7.00;2.17;;;9.50;99.90;;;;;;4179223;28;20039;-77
2023/11/16 07:14:52;;;;;;;10.05;2.78;;;9.50;99.90;;;;;;4175182;28;20037;-78
2023/11/16 07:16:54;;;;;;;9.18;2.35;;;9.50;99.90;;;;;;4174222;28;20111;-76
2023/11/16 07:18:55;;;;;;;7.65;2.85;;;9.40;99.90;;;;;;4173824;28;20045;-76
2023/11/16 07:20:58;;;;;;;6.18;2.58;;;9.50;99.90;;;;;;4162267;28;20512;-77
2023/11/16 07:22:58;;;;;;;8.77;2.85;;;9.40;99.90;;;;;;4166300;28;20063;-77
2023/11/16 07:25:04;;;;;;;7.82;2.88;;;9.40;99.90;;;;;;4172826;28;20104;-77
2023/11/16 07:27:08;;;;;;;8.43;2.70;;;9.40;99.90;;;;;;4165113;28;20021;-77
2023/11/16 07:29:08;;;;;;;7.38;2.67;;;9.40;99.90;;;;;;4170317;28;20123;-76
2023/11/16 07:31:09;;;;;;;7.88;2.97;;;9.40;99.90;;;;;;4169417;28;20493;-74
2023/11/16 07:33:15;;;;;;;12.30;3.00;;;9.30;99.90;;;;;;4163477;28;20037;-76
2023/11/16 07:35:15;;;;;;;7.22;2.83;;;9.40;99.90;;;;;;4161133;28;20574;-77
2023/11/16 07:37:16;;;;;;;10.57;2.75;;;9.40;99.90;;;;;;4168090;28;20083;-76
2023/11/16 07:39:17;;;;;;;7.75;2.90;;;9.40;99.90;;;;;;4172338;28;20080;-77
2023/11/16 07:41:18;;;;;;;6.60;2.42;;;9.40;99.90;;;;;;4161400;28;20032;-77
2023/11/16 07:43:18;;;;;;;8.73;2.60;;;9.40;99.90;;;;;;4174906;28;20037;-77
2023/11/16 07:45:19;;;;;;;5.32;2.30;;;9.50;99.90;;;;;;4170385;28;20396;-77
2023/11/16 07:47:21;;;;;;;6.88;2.05;;;9.50;99.90;;;;;;4173048;28;20102;-76
2023/11/16 07:49:22;;;;;;;7.33;2.70;;;9.50;99.90;;;;;;4167518;28;20055;-78
2023/11/16 07:51:24;;;;;;;7.87;2.57;;;9.50;99.90;;;;;;4173551;28;20469;-77
2023/11/16 07:53:25;;;;;;;5.80;2.40;;;9.60;99.90;;;;;;4180411;28;20275;-76
2023/11/16 07:55:26;;;;;;;6.32;2.45;;;9.60;99.90;;;;;;4171988;28;20125;-76
2023/11/16 07:57:27;;;;;;;7.78;2.92;;;9.50;99.90;;;;;;4160636;28;20071;-78
2023/11/16 07:59:31;;;;;;;7.82;2.63;;;9.60;99.90;;;;;;4171465;28;20049;-64
2023/11/16 08:01:40;;;;;;;7.60;2.80;;;9.60;99.90;;;;;;4164717;28;20060;-64
2023/11/16 08:03:43;;;;;;;8.63;2.72;;;9.70;99.90;;;;;;4169287;28;20091;-64
2023/11/16 08:05:45;;;;;;;5.97;2.25;;;9.70;99.90;;;;;;4170893;28;20119;-64
2023/11/16 08:07:49;;;;;;;6.97;2.92;;;9.70;99.90;;;;;;4164894;28;20057;-64
2023/11/16 08:09:50;;;;;;;6.90;2.55;;;9.70;99.90;;;;;;4167662;28;20037;-64
2023/11/16 08:11:54;;;;;;;9.80;2.92;;;9.70;99.90;;;;;;4158335;28;20072;-64
2023/11/16 08:13:57;;;;;;;7.68;3.05;;;9.70;99.90;;;;;;4173799;28;20100;-64
2023/11/16 08:15:59;;;;;;;;;;;9.70;99.90;;;;;;4171842;28;20119;-64
2023/11/16 08:17:59;;;;;;;13.13;3.85;;;9.70;99.90;;;;;;4174772;28;20015;-64
2023/11/16 08:20:03;;;;;;;9.38;3.53;;;9.70;99.90;;;;;;4170866;28;20065;-65
2023/11/16 08:22:04;;;;;;;8.60;3.13;;;9.70;99.90;;;;;;4172494;28;20044;-64
2023/11/16 08:24:05;;;;;;;7.28;2.97;;;9.70;99.90;;;;;;4172996;28;20086;-64
2023/11/16 08:26:07;;;;;;;8.23;3.15;;;9.70;99.90;;;;;;4173008;28;20037;-64
2023/11/16 08:28:10;;;;;;;6.38;2.78;;;9.70;99.90;;;;;;4173112;28;20060;-64
2023/11/16 08:30:11;;;;;;;6.30;3.22;;;9.70;99.90;;;;;;4164800;28;20033;-65
2023/11/16 08:32:12;;;;;;;9.30;2.80;;;9.70;99.90;;;;;;4172929;28;20040;-64
2023/11/16 08:34:13;;;;;;;9.27;2.92;;;9.70;99.90;;;;;;4170815;28;20492;-64
2023/11/16 08:36:15;;;;;;;9.52;3.22;;;9.80;99.90;;;;;;4172709;28;20051;-65
2023/11/16 08:38:16;;;;;;;10.27;3.58;;;9.80;99.90;;;;;;4167573;28;20086;-64
2023/11/16 08:40:18;;;;;;;12.15;3.90;;;9.80;99.90;;;;;;4169446;28;20075;-64
2023/11/16 08:42:23;;;;;;;7.47;2.88;;;9.80;99.90;;;;;;4173601;28;20095;-64
2023/11/16 08:44:25;;;;;;;7.15;2.90;;;9.80;99.90;;;;;;4172139;28;20393;-64
2023/11/16 08:46:31;;;;;;;9.55;2.90;;;9.80;99.90;;;;;;4168030;28;20033;-64
2023/11/16 08:48:32;;;;;;;7.03;2.58;;;9.80;99.90;;;;;;4173562;28;20040;-65
2023/11/16 08:50:33;;;;;;;6.57;2.80;;;9.80;99.90;;;;;;4167423;28;20048;-64
2023/11/16 08:52:34;;;;;;;6.82;2.75;;;9.80;99.90;;;;;;4172479;28;20520;-64
2023/11/16 08:54:34;;;;;;;4.07;2.30;;;9.90;99.90;;;;;;4177001;28;20063;-64
2023/11/16 08:56:36;;;;;;;5.82;2.83;;;9.90;99.90;;;;;;4175963;28;20071;-64
2023/11/16 08:58:39;;;;;;;7.53;2.70;;;9.90;99.90;;;;;;4172326;28;20057;-64
2023/11/16 09:00:45;;;;;;;6.18;2.63;;;9.90;99.90;;;;;;4170241;28;20548;-65
2023/11/16 09:02:46;;;;;;;9.13;3.05;;;9.90;99.90;;;;;;4175446;28;20481;-64
2023/11/16 09:04:48;;;;;;;7.65;2.97;;;9.90;99.90;;;;;;4171019;28;20543;-64
2023/11/16 09:06:50;;;;;;;5.57;2.38;;;9.90;99.90;;;;;;4171114;28;20048;-64
2023/11/16 09:08:50;;;;;;;4.63;1.92;;;9.90;99.90;;;;;;4176341;28;20037;-64
2023/11/16 09:10:51;;;;;;;7.60;2.80;;;10.00;99.90;;;;;;4175072;28;20040;-64
2023/11/16 09:12:55;;;;;;;6.60;2.60;;;10.00;99.90;;;;;;4175599;28;20048;-64
2023/11/16 09:14:55;;;;;;;5.68;2.58;;;10.00;99.90;;;;;;4161377;28;20033;-64
2023/11/16 09:17:02;;;;;;;7.97;2.72;;;10.00;99.90;;;;;;4170180;28;20051;-64
2023/11/16 09:19:06;;;;;;;9.43;2.75;;;10.00;99.90;;;;;;4172406;28;20052;-64
2023/11/16 09:21:09;;;;;;;7.20;2.80;;;10.00;99.90;;;;;;4165686;28;20037;-64
2023/11/16 09:23:11;;;;;;;;;;;10.00;99.90;;;;;;4177468;28;20037;-65
2023/11/16 09:25:23;;;;;;;6.72;2.63;;;10.10;99.90;;;;;;4173874;28;19909;-65
2023/11/16 09:27:24;;;;;;;5.43;2.55;;;10.10;99.90;;;;;;4175351;28;20489;-64
2023/11/16 09:29:28;;;;;;;4.90;2.45;;;10.10;99.90;;;;;;4169250;28;20045;-64
2023/11/16 09:31:29;;;;;;;10.20;3.00;;;10.10;99.90;;;;;;4170783;28;20056;-64
2023/11/16 09:33:30;;;;;;;7.82;2.75;;;10.10;99.90;;;;;;4173467;28;20037;-64
2023/11/16 09:35:30;;;;;;;10.32;3.30;;;10.10;99.90;;;;;;4166035;28;20376;-64
2023/11/16 09:37:31;;;;;;;8.90;3.35;;;10.10;99.90;;;;;;4182063;28;20033;-64
2023/11/16 09:39:32;;;;;;;9.25;3.33;;;10.00;99.90;;;;;;4173074;28;20140;-64
2023/11/16 09:41:35;;;;;;;6.43;2.80;;;10.00;99.90;;;;;;4175253;28;20060;-64
2023/11/16 09:43:39;;;;;;;7.88;3.13;;;10.00;99.90;;;;;;4163769;28;20041;-64
2023/11/16 09:45:42;;;;;;;6.70;2.85;;;10.00;99.90;;;;;;4173474;28;20033;-64
2023/11/16 09:47:47;;;;;;;4.30;2.50;;;10.00;99.90;;;;;;4174756;28;20477;-65
2023/11/16 09:49:48;;;;;;;5.78;2.55;;;10.00;99.90;;;;;;4170193;28;20041;-64
2023/11/16 09:51:51;;;;;;;6.60;3.03;;;10.00;99.90;;;;;;4175571;28;20108;-64
2023/11/16 09:53:58;;;;;;;4.45;2.58;;;10.00;99.90;;;;;;4175865;28;20044;-64
2023/11/16 09:56:00;;;;;;;8.15;2.78;;;10.00;99.90;;;;;;4174610;28;20127;-64
2023/11/16 09:58:09;;;;;;;;;;;10.10;99.90;;;;;;4176589;28;20069;-64
2023/11/16 10:00:14;;;;;;;9.20;2.90;;;10.10;99.90;;;;;;4164265;28;20420;-65
2023/11/16 10:02:18;;;;;;;7.25;2.58;;;10.10;99.90;;;;;;4169247;28;20037;-64
2023/11/16 10:04:19;;;;;;;5.22;2.70;;;10.10;99.90;;;;;;4166526;28;20056;-64
2023/11/16 10:06:22;;;;;;;7.80;2.92;;;10.20;99.90;;;;;;4171329;28;20040;-64
2023/11/16 10:08:25;;;;;;;5.63;3.00;;;10.20;99.90;;;;;;4169386;28;20029;-64
2023/11/16 10:10:29;;;;;;;6.32;2.97;;;10.20;99.90;;;;;;4172460;28;20123;-64
2023/11/16 10:12:31;;;;;;;7.50;3.15;;;10.20;99.90;;;;;;4170422;28;20477;-64
2023/11/16 10:14:40;;;;;;;6.50;2.97;;;10.20;99.90;;;;;;4174981;28;20458;-64
2023/11/16 10:16:40;;;;;;;8.00;2.95;;;10.30;99.90;;;;;;4170653;28;20083;-64
2023/11/16 10:18:42;;;;;;;9.27;3.40;;;10.20;99.90;;;;;;4172504;28;20033;-68
2023/11/16 10:20:43;;;;;;;8.15;3.03;;;10.30;99.90;;;;;;4171497;28;20440;-68
2023/11/16 10:22:44;;;;;;;8.40;3.08;;;10.30;99.90;;;;;;4175673;28;20036;-69
2023/11/16 10:24:47;;;;;;;6.43;3.43;;;10.30;99.90;;;;;;4174859;28;20045;-69
2023/11/16 10:26:54;;;;;;;;;;;10.30;99.90;;;;;;4174530;28;20099;-68
2023/11/16 10:28:55;;;;;;;8.60;3.00;;;10.30;99.90;;;;;;4171307;28;19908;-68
2023/11/16 10:30:57;;;;;;;5.70;2.35;;;10.20;99.90;;;;;;4166030;28;20056;-68
2023/11/16 10:32:59;;;;;;;5.30;2.60;;;10.20;99.90;;;;;;4174827;28;20037;-68
2023/11/16 10:35:01;;;;;;;8.80;3.17;;;10.20;99.90;;;;;;4174864;28;20102;-68
2023/11/16 10:37:04;;;;;;;7.00;3.00;;;10.20;99.90;;;;;;4172385;28;20033;-68
2023/11/16 10:39:11;;;;;;;7.85;2.65;;;10.30;99.90;;;;;;4172004;28;20048;-69